sensor_id;sensor_type;location;lat;lon;timestamp;pressure;altitude;pressure_sealevel;temperature;humidity
71764;BME280;59602;52.142;5.408;2023-07-13T00:01:53;101452.81;;;18.58;69.59
71764;BME280;59602;52.142;5.408;2023-07-13T00:04:22;101448.97;;;18.52;70.27
71764;BME280;59602;52.142;5.408;2023-07-13T00:06:52;101446.28;;;18.48;70.91
71764;BME280;59602;52.142;5.408;2023-07-13T00:09:20;101449.03;;;18.48;70.70
71764;BME280;59602;52.142;5.408;2023-07-13T00:11:53;101445.91;;;18.46;70.93
71764;BME280;59602;52.142;5.408;2023-07-13T00:14:20;101441.25;;;18.43;71.98
71764;BME280;59602;52.142;5.408;2023-07-13T00:16:47;101447.53;;;18.43;71.41
71764;BME280;59602;52.142;5.408;2023-07-13T00:19:17;101447.59;;;18.40;71.79
71764;BME280;59602;52.142;5.408;2023-07-13T00:21:44;101448.06;;;18.35;71.40
71764;BME280;59602;52.142;5.408;2023-07-13T00:24:12;101448.91;;;18.32;71.84
71764;BME280;59602;52.142;5.408;2023-07-13T00:26:40;101458.03;;;18.29;71.87
71764;BME280;59602;52.142;5.408;2023-07-13T00:29:09;101446.63;;;18.27;71.80
71764;BME280;59602;52.142;5.408;2023-07-13T00:31:36;101447.09;;;18.21;71.91
71764;BME280;59602;52.142;5.408;2023-07-13T00:34:03;101446.72;;;18.19;72.22
71764;BME280;59602;52.142;5.408;2023-07-13T00:36:30;101442.44;;;18.18;72.36
71764;BME280;59602;52.142;5.408;2023-07-13T00:38:57;101443.69;;;18.14;72.39
71764;BME280;59602;52.142;5.408;2023-07-13T00:41:24;101443.28;;;18.15;72.53
71764;BME280;59602;52.142;5.408;2023-07-13T00:43:50;101439.72;;;18.15;72.37
71764;BME280;59602;52.142;5.408;2023-07-13T00:46:21;101439.38;;;18.13;71.42
71764;BME280;59602;52.142;5.408;2023-07-13T00:48:50;101445.66;;;18.13;72.08
71764;BME280;59602;52.142;5.408;2023-07-13T00:51:20;101451.94;;;18.14;72.00
71764;BME280;59602;52.142;5.408;2023-07-13T00:53:48;101447.69;;;18.09;71.74
71764;BME280;59602;52.142;5.408;2023-07-13T00:56:15;101449.34;;;18.03;71.93
71764;BME280;59602;52.142;5.408;2023-07-13T00:58:42;101442.72;;;18.00;72.21
71764;BME280;59602;52.142;5.408;2023-07-13T01:01:09;101445.50;;;17.97;71.64
71764;BME280;59602;52.142;5.408;2023-07-13T01:03:36;101441.25;;;17.92;71.93
71764;BME280;59602;52.142;5.408;2023-07-13T01:06:04;101441.63;;;17.94;71.96
71764;BME280;59602;52.142;5.408;2023-07-13T01:08:31;101438.44;;;17.96;72.05
71764;BME280;59602;52.142;5.408;2023-07-13T01:10:58;101441.63;;;17.94;71.89
71764;BME280;59602;52.142;5.408;2023-07-13T01:13:25;101435.81;;;17.89;72.10
71764;BME280;59602;52.142;5.408;2023-07-13T01:15:54;101452.72;;;17.87;72.23
71764;BME280;59602;52.142;5.408;2023-07-13T01:18:23;101449.97;;;17.87;71.95
71764;BME280;59602;52.142;5.408;2023-07-13T01:20:57;101447.63;;;17.86;72.32
71764;BME280;59602;52.142;5.408;2023-07-13T01:23:25;101456.72;;;17.82;72.15
71764;BME280;59602;52.142;5.408;2023-07-13T01:25:53;101459.13;;;17.77;73.12
71764;BME280;59602;52.142;5.408;2023-07-13T01:28:22;101458.34;;;17.76;72.50
71764;BME280;59602;52.142;5.408;2023-07-13T01:30:49;101459.19;;;17.73;72.96
71764;BME280;59602;52.142;5.408;2023-07-13T01:33:17;101454.50;;;17.70;72.46
71764;BME280;59602;52.142;5.408;2023-07-13T01:35:45;101451.38;;;17.68;72.50
71764;BME280;59602;52.142;5.408;2023-07-13T01:38:16;101458.47;;;17.66;72.76
71764;BME280;59602;52.142;5.408;2023-07-13T01:40:43;101454.59;;;17.63;73.12
71764;BME280;59602;52.142;5.408;2023-07-13T01:43:13;101454.59;;;17.63;73.12
71764;BME280;59602;52.142;5.408;2023-07-13T01:45:40;101450.28;;;17.62;73.27
71764;BME280;59602;52.142;5.408;2023-07-13T01:48:09;101462.09;;;17.59;73.44
71764;BME280;59602;52.142;5.408;2023-07-13T01:50:37;101456.66;;;17.55;73.51
71764;BME280;59602;52.142;5.408;2023-07-13T01:53:04;101458.66;;;17.55;74.25
71764;BME280;59602;52.142;5.408;2023-07-13T01:55:31;101466.09;;;17.54;73.79
71764;BME280;59602;52.142;5.408;2023-07-13T01:57:58;101462.59;;;17.50;73.67
71764;BME280;59602;52.142;5.408;2023-07-13T02:00:25;101470.50;;;17.48;73.80
71764;BME280;59602;52.142;5.408;2023-07-13T02:02:52;101462.28;;;17.45;74.10
71764;BME280;59602;52.142;5.408;2023-07-13T02:05:19;101454.06;;;17.41;74.24
71764;BME280;59602;52.142;5.408;2023-07-13T02:07:46;101467.44;;;17.39;74.52
71764;BME280;59602;52.142;5.408;2023-07-13T02:10:13;101459.25;;;17.35;74.62
71764;BME280;59602;52.142;5.408;2023-07-13T02:12:41;101464.00;;;17.35;74.73
71764;BME280;59602;52.142;5.408;2023-07-13T02:15:08;101470.69;;;17.30;74.58
71764;BME280;59602;52.142;5.408;2023-07-13T02:17:36;101473.09;;;17.28;74.94
71764;BME280;59602;52.142;5.408;2023-07-13T02:20:04;101481.78;;;17.23;74.97
71764;BME280;59602;52.142;5.408;2023-07-13T02:22:32;101470.00;;;17.22;75.12
71764;BME280;59602;52.142;5.408;2023-07-13T02:24:58;101473.53;;;17.23;75.23
71764;BME280;59602;52.142;5.408;2023-07-13T02:27:25;101480.22;;;17.22;74.91
71764;BME280;59602;52.142;5.408;2023-07-13T02:29:53;101472.78;;;17.19;75.15
71764;BME280;59602;52.142;5.408;2023-07-13T02:32:19;101472.00;;;17.18;75.51
71764;BME280;59602;52.142;5.408;2023-07-13T02:34:48;101478.28;;;17.19;75.59
71764;BME280;59602;52.142;5.408;2023-07-13T02:37:15;101473.16;;;17.21;75.75
71764;BME280;59602;52.142;5.408;2023-07-13T02:39:42;101472.47;;;17.13;75.42
71764;BME280;59602;52.142;5.408;2023-07-13T02:42:10;101479.13;;;17.12;75.51
71764;BME280;59602;52.142;5.408;2023-07-13T02:44:37;101478.38;;;17.12;75.29
71764;BME280;59602;52.142;5.408;2023-07-13T02:47:04;101476.44;;;17.09;75.37
71764;BME280;59602;52.142;5.408;2023-07-13T02:49:31;101477.66;;;17.04;75.64
71764;BME280;59602;52.142;5.408;2023-07-13T02:51:58;101470.59;;;17.03;76.02
71764;BME280;59602;52.142;5.408;2023-07-13T02:54:24;101474.94;;;17.00;76.02
71764;BME280;59602;52.142;5.408;2023-07-13T02:56:51;101468.69;;;16.96;76.81
71764;BME280;59602;52.142;5.408;2023-07-13T02:59:18;101471.44;;;17.00;76.51
71764;BME280;59602;52.142;5.408;2023-07-13T03:01:44;101480.84;;;16.99;77.03
71764;BME280;59602;52.142;5.408;2023-07-13T03:04:12;101481.66;;;16.99;77.09
71764;BME280;59602;52.142;5.408;2023-07-13T03:06:39;101480.84;;;16.99;76.80
71764;BME280;59602;52.142;5.408;2023-07-13T03:09:06;101480.53;;;16.93;76.78
71764;BME280;59602;52.142;5.408;2023-07-13T03:11:33;101482.50;;;16.93;77.07
71764;BME280;59602;52.142;5.408;2023-07-13T03:14:00;101495.03;;;16.94;77.35
71764;BME280;59602;52.142;5.408;2023-07-13T03:16:26;101491.13;;;16.91;77.46
71764;BME280;59602;52.142;5.408;2023-07-13T03:18:53;101488.38;;;16.91;77.62
71764;BME280;59602;52.142;5.408;2023-07-13T03:21:20;101479.38;;;16.91;77.23
71764;BME280;59602;52.142;5.408;2023-07-13T03:23:47;101484.88;;;16.87;77.04
71764;BME280;59602;52.142;5.408;2023-07-13T03:26:17;101486.94;;;16.79;77.29
71764;BME280;59602;52.142;5.408;2023-07-13T03:28:45;101490.81;;;16.78;77.76
71764;BME280;59602;52.142;5.408;2023-07-13T03:31:16;101492.41;;;16.76;77.66
71764;BME280;59602;52.142;5.408;2023-07-13T03:33:44;101504.19;;;16.76;78.02
71764;BME280;59602;52.142;5.408;2023-07-13T03:36:15;101503.41;;;16.76;78.00
71764;BME280;59602;52.142;5.408;2023-07-13T03:38:53;101502.25;;;16.73;77.68
71764;BME280;59602;52.142;5.408;2023-07-13T03:41:20;101505.41;;;16.72;78.13
71764;BME280;59602;52.142;5.408;2023-07-13T03:43:47;101504.28;;;16.66;77.81
71764;BME280;59602;52.142;5.408;2023-07-13T03:46:15;101510.19;;;16.64;78.27
71764;BME280;59602;52.142;5.408;2023-07-13T03:48:44;101503.91;;;16.64;78.20
71764;BME280;59602;52.142;5.408;2023-07-13T03:51:13;101509.41;;;16.64;78.38
71764;BME280;59602;52.142;5.408;2023-07-13T03:53:42;101510.94;;;16.65;78.55
71764;BME280;59602;52.142;5.408;2023-07-13T03:56:10;101518.03;;;16.62;78.81
71764;BME280;59602;52.142;5.408;2023-07-13T03:58:39;101522.31;;;16.63;79.25
71764;BME280;59602;52.142;5.408;2023-07-13T04:01:08;101522.72;;;16.65;79.24
71764;BME280;59602;52.142;5.408;2023-07-13T04:03:36;101527.41;;;16.68;79.26
71764;BME280;59602;52.142;5.408;2023-07-13T04:06:04;101532.91;;;16.68;79.03
71764;BME280;59602;52.142;5.408;2023-07-13T04:08:34;101530.56;;;16.67;79.38
71764;BME280;59602;52.142;5.408;2023-07-13T04:11:03;101535.66;;;16.65;79.74
71764;BME280;59602;52.142;5.408;2023-07-13T04:13:36;101534.84;;;16.68;79.75
71764;BME280;59602;52.142;5.408;2023-07-13T04:16:03;101533.69;;;16.69;80.20
71764;BME280;59602;52.142;5.408;2023-07-13T04:18:29;101539.50;;;16.74;80.21
71764;BME280;59602;52.142;5.408;2023-07-13T04:20:56;101535.59;;;16.75;80.11
71764;BME280;59602;52.142;5.408;2023-07-13T04:23:23;101543.81;;;16.79;80.37
71764;BME280;59602;52.142;5.408;2023-07-13T04:25:52;101541.88;;;16.79;80.15
71764;BME280;59602;52.142;5.408;2023-07-13T04:28:23;101549.28;;;16.83;79.86
71764;BME280;59602;52.142;5.408;2023-07-13T04:30:50;101548.50;;;16.82;80.09
71764;BME280;59602;52.142;5.408;2023-07-13T04:33:17;101548.13;;;16.84;80.33
71764;BME280;59602;52.142;5.408;2023-07-13T04:35:44;101544.94;;;16.85;80.25
71764;BME280;59602;52.142;5.408;2023-07-13T04:38:13;101554.34;;;16.88;80.07
71764;BME280;59602;52.142;5.408;2023-07-13T04:40:45;101549.63;;;16.88;80.31
71764;BME280;59602;52.142;5.408;2023-07-13T04:43:11;101551.19;;;16.89;80.50
71764;BME280;59602;52.142;5.408;2023-07-13T04:45:38;101542.94;;;16.93;80.64
71764;BME280;59602;52.142;5.408;2023-07-13T04:48:05;101538.59;;;16.95;80.39
71764;BME280;59602;52.142;5.408;2023-07-13T04:50:32;101545.59;;;17.00;80.66
71764;BME280;59602;52.142;5.408;2023-07-13T04:52:59;101545.59;;;17.04;80.43
71764;BME280;59602;52.142;5.408;2023-07-13T04:55:25;101557.28;;;17.11;80.24
71764;BME280;59602;52.142;5.408;2023-07-13T04:57:57;101555.28;;;17.15;80.69
71764;BME280;59602;52.142;5.408;2023-07-13T05:00:26;101545.88;;;17.13;80.79
71764;BME280;59602;52.142;5.408;2023-07-13T05:02:55;101546.63;;;17.17;80.58
71764;BME280;59602;52.142;5.408;2023-07-13T05:05:24;101554.06;;;17.20;81.10
71764;BME280;59602;52.142;5.408;2023-07-13T05:07:52;101553.22;;;17.23;80.92
71764;BME280;59602;52.142;5.408;2023-07-13T05:10:19;101549.25;;;17.28;80.94
71764;BME280;59602;52.142;5.408;2023-07-13T05:12:46;101559.81;;;17.33;80.51
71764;BME280;59602;52.142;5.408;2023-07-13T05:15:13;101560.91;;;17.39;80.87
71764;BME280;59602;52.142;5.408;2023-07-13T05:17:40;101555.47;;;17.35;81.04
71764;BME280;59602;52.142;5.408;2023-07-13T05:20:09;101561.72;;;17.39;81.13
71764;BME280;59602;52.142;5.408;2023-07-13T05:22:36;101560.50;;;17.44;81.08
71764;BME280;59602;52.142;5.408;2023-07-13T05:25:05;101564.41;;;17.47;81.02
71764;BME280;59602;52.142;5.408;2023-07-13T05:27:33;101574.56;;;17.50;81.08
71764;BME280;59602;52.142;5.408;2023-07-13T05:30:00;101570.63;;;17.51;81.27
71764;BME280;59602;52.142;5.408;2023-07-13T05:32:27;101567.53;;;17.45;81.50
71764;BME280;59602;52.142;5.408;2023-07-13T05:34:54;101576.94;;;17.48;81.91
71764;BME280;59602;52.142;5.408;2023-07-13T05:37:20;101578.03;;;17.57;81.79
71764;BME280;59602;52.142;5.408;2023-07-13T05:39:47;101576.00;;;17.61;81.16
71764;BME280;59602;52.142;5.408;2023-07-13T05:42:15;101581.88;;;17.63;81.14
71764;BME280;59602;52.142;5.408;2023-07-13T05:44:42;101584.63;;;17.63;81.60
71764;BME280;59602;52.142;5.408;2023-07-13T05:47:09;101580.25;;;17.70;81.45
71764;BME280;59602;52.142;5.408;2023-07-13T05:49:36;101584.97;;;17.69;81.24
71764;BME280;59602;52.142;5.408;2023-07-13T05:52:02;101590.00;;;17.74;81.60
71764;BME280;59602;52.142;5.408;2023-07-13T05:54:29;101593.91;;;17.77;81.26
71764;BME280;59602;52.142;5.408;2023-07-13T05:56:56;101595.41;;;17.85;80.81
71764;BME280;59602;52.142;5.408;2023-07-13T05:59:23;101602.50;;;17.86;81.30
71764;BME280;59602;52.142;5.408;2023-07-13T06:01:49;101601.34;;;17.80;80.73
71764;BME280;59602;52.142;5.408;2023-07-13T06:04:19;101605.66;;;17.84;81.10
71764;BME280;59602;52.142;5.408;2023-07-13T06:06:47;101602.50;;;17.86;81.45
71764;BME280;59602;52.142;5.408;2023-07-13T06:09:14;101606.72;;;17.94;80.95
71764;BME280;59602;52.142;5.408;2023-07-13T06:11:41;101613.78;;;17.95;81.29
71764;BME280;59602;52.142;5.408;2023-07-13T06:14:08;101618.84;;;17.97;81.08
71764;BME280;59602;52.142;5.408;2023-07-13T06:16:34;101620.75;;;18.03;81.19
71764;BME280;59602;52.142;5.408;2023-07-13T06:19:02;101626.63;;;18.05;81.07
71764;BME280;59602;52.142;5.408;2023-07-13T06:21:28;101620.31;;;18.09;80.66
71764;BME280;59602;52.142;5.408;2023-07-13T06:23:55;101632.00;;;18.16;80.61
71764;BME280;59602;52.142;5.408;2023-07-13T06:26:22;101629.97;;;18.20;80.95
71764;BME280;59602;52.142;5.408;2023-07-13T06:28:49;101631.59;;;18.18;81.20
71764;BME280;59602;52.142;5.408;2023-07-13T06:31:16;101625.34;;;18.14;80.87
71764;BME280;59602;52.142;5.408;2023-07-13T06:33:43;101641.84;;;18.17;80.52
71764;BME280;59602;52.142;5.408;2023-07-13T06:36:11;101629.16;;;18.23;81.27
71764;BME280;59602;52.142;5.408;2023-07-13T06:38:38;101635.72;;;18.33;80.42
71764;BME280;59602;52.142;5.408;2023-07-13T06:41:07;101642.75;;;18.38;80.82
71764;BME280;59602;52.142;5.408;2023-07-13T06:43:34;101637.50;;;18.47;80.46
71764;BME280;59602;52.142;5.408;2023-07-13T06:46:01;101641.78;;;18.52;80.33
71764;BME280;59602;52.142;5.408;2023-07-13T06:48:28;101633.03;;;18.57;80.15
71764;BME280;59602;52.142;5.408;2023-07-13T06:50:55;101637.63;;;18.67;80.00
71764;BME280;59602;52.142;5.408;2023-07-13T06:53:23;101635.63;;;18.67;79.57
71764;BME280;59602;52.142;5.408;2023-07-13T06:55:49;101633.63;;;18.72;79.05
71764;BME280;59602;52.142;5.408;2023-07-13T06:58:17;101636.72;;;18.74;79.16
71764;BME280;59602;52.142;5.408;2023-07-13T07:00:45;101642.25;;;18.74;79.53
71764;BME280;59602;52.142;5.408;2023-07-13T07:03:12;101649.66;;;18.77;79.64
71764;BME280;59602;52.142;5.408;2023-07-13T07:05:39;101638.88;;;18.90;78.72
71764;BME280;59602;52.142;5.408;2023-07-13T07:08:06;101651.66;;;19.03;78.49
71764;BME280;59602;52.142;5.408;2023-07-13T07:10:33;101651.78;;;18.96;78.42
71764;BME280;59602;52.142;5.408;2023-07-13T07:13:02;101664.47;;;18.90;78.60
71764;BME280;59602;52.142;5.408;2023-07-13T07:15:29;101666.44;;;18.90;79.16
71764;BME280;59602;52.142;5.408;2023-07-13T07:17:56;101659.31;;;18.92;79.94
71764;BME280;59602;52.142;5.408;2023-07-13T07:23:30;101666.38;;;19.20;79.82
71764;BME280;59602;52.142;5.408;2023-07-13T07:35:48;101682.72;;;18.77;80.88
71764;BME280;59602;52.142;5.408;2023-07-13T07:41:32;101679.44;;;18.89;83.32
71764;BME280;59602;52.142;5.408;2023-07-13T07:44:02;101672.31;;;18.92;83.99
71764;BME280;59602;52.142;5.408;2023-07-13T07:46:30;101670.66;;;18.98;84.33
71764;BME280;59602;52.142;5.408;2023-07-13T07:48:57;101664.59;;;19.06;84.58
71764;BME280;59602;52.142;5.408;2023-07-13T07:51:23;101659.81;;;19.11;84.53
71764;BME280;59602;52.142;5.408;2023-07-13T07:53:50;101659.34;;;19.16;84.18
71764;BME280;59602;52.142;5.408;2023-07-13T07:56:17;101653.41;;;19.17;83.77
71764;BME280;59602;52.142;5.408;2023-07-13T07:58:47;101653.84;;;19.16;83.13
71764;BME280;59602;52.142;5.408;2023-07-13T08:01:19;101649.81;;;19.20;83.05
71764;BME280;59602;52.142;5.408;2023-07-13T08:03:49;101653.91;;;19.36;82.18
71764;BME280;59602;52.142;5.408;2023-07-13T08:06:18;101666.88;;;19.59;82.65
71764;BME280;59602;52.142;5.408;2023-07-13T08:08:49;101674.66;;;19.64;81.56
71764;BME280;59602;52.142;5.408;2023-07-13T08:11:17;101664.53;;;19.57;81.79
71764;BME280;59602;52.142;5.408;2023-07-13T08:13:46;101672.28;;;19.66;81.23
71764;BME280;59602;52.142;5.408;2023-07-13T08:16:13;101669.91;;;19.64;82.21
71764;BME280;59602;52.142;5.408;2023-07-13T08:18:41;101657.66;;;19.69;81.24
71764;BME280;59602;52.142;5.408;2023-07-13T08:21:09;101661.13;;;19.73;80.13
71764;BME280;59602;52.142;5.408;2023-07-13T08:23:36;101665.25;;;19.85;79.50
71764;BME280;59602;52.142;5.408;2023-07-13T08:26:03;101667.09;;;19.92;77.88
71764;BME280;59602;52.142;5.408;2023-07-13T08:28:31;101670.34;;;20.06;79.36
71764;BME280;59602;52.142;5.408;2023-07-13T08:31:04;101671.78;;;20.15;79.46
71764;BME280;59602;52.142;5.408;2023-07-13T08:33:31;101667.72;;;20.19;80.23
71764;BME280;59602;52.142;5.408;2023-07-13T08:35:58;101654.47;;;20.30;75.40
71764;BME280;59602;52.142;5.408;2023-07-13T08:38:24;101657.66;;;20.29;75.01
71764;BME280;59602;52.142;5.408;2023-07-13T08:40:53;101647.72;;;20.31;74.04
71764;BME280;59602;52.142;5.408;2023-07-13T08:43:27;101657.00;;;20.41;74.46
71764;BME280;59602;52.142;5.408;2023-07-13T08:46:02;101655.16;;;20.55;71.94
71764;BME280;59602;52.142;5.408;2023-07-13T08:48:36;101663.31;;;20.62;73.93
71764;BME280;59602;52.142;5.408;2023-07-13T08:53:46;101691.00;;;20.38;69.36
71764;BME280;59602;52.142;5.408;2023-07-13T08:56:19;101681.47;;;20.23;69.03
71764;BME280;59602;52.142;5.408;2023-07-13T08:58:51;101686.50;;;20.08;67.99
71764;BME280;59602;52.142;5.408;2023-07-13T09:01:28;101686.47;;;19.88;68.04
71764;BME280;59602;52.142;5.408;2023-07-13T09:04:09;101690.34;;;19.70;71.53
71764;BME280;59602;52.142;5.408;2023-07-13T09:14:42;101692.97;;;19.54;73.92
71764;BME280;59602;52.142;5.408;2023-07-13T09:17:18;101688.19;;;19.58;73.68
71764;BME280;59602;52.142;5.408;2023-07-13T09:19:50;101691.84;;;19.52;74.67
71764;BME280;59602;52.142;5.408;2023-07-13T09:22:22;101685.25;;;19.45;74.28
71764;BME280;59602;52.142;5.408;2023-07-13T09:27:24;101694.25;;;19.49;77.46
71764;BME280;59602;52.142;5.408;2023-07-13T09:30:11;101697.09;;;19.69;77.66
71764;BME280;59602;52.142;5.408;2023-07-13T09:32:48;101694.25;;;19.73;76.21
71764;BME280;59602;52.142;5.408;2023-07-13T09:35:20;101688.88;;;19.62;76.21
71764;BME280;59602;52.142;5.408;2023-07-13T09:37:48;101691.47;;;19.73;77.46
71764;BME280;59602;52.142;5.408;2023-07-13T09:40:28;101683.22;;;19.93;74.54
71764;BME280;59602;52.142;5.408;2023-07-13T09:42:57;101685.94;;;20.17;76.82
71764;BME280;59602;52.142;5.408;2023-07-13T09:45:28;101690.38;;;20.10;73.66
71764;BME280;59602;52.142;5.408;2023-07-13T09:48:04;101705.63;;;19.99;74.83
71764;BME280;59602;52.142;5.408;2023-07-13T09:50:31;101714.09;;;19.88;76.35
71764;BME280;59602;52.142;5.408;2023-07-13T09:52:58;101724.19;;;19.75;78.13
71764;BME280;59602;52.142;5.408;2023-07-13T09:55:36;101746.59;;;19.53;79.80
71764;BME280;59602;52.142;5.408;2023-07-13T09:58:14;101749.75;;;19.28;80.16
71764;BME280;59602;52.142;5.408;2023-07-13T10:00:43;101746.47;;;19.10;81.64
71764;BME280;59602;52.142;5.408;2023-07-13T10:03:20;101739.50;;;19.01;80.79
71764;BME280;59602;52.142;5.408;2023-07-13T10:05:49;101738.75;;;18.97;80.40
71764;BME280;59602;52.142;5.408;2023-07-13T10:08:21;101740.19;;;19.09;79.74
71764;BME280;59602;52.142;5.408;2023-07-13T10:10:57;101741.06;;;19.29;81.96
71764;BME280;59602;52.142;5.408;2023-07-13T10:13:27;101735.75;;;19.42;79.94
71764;BME280;59602;52.142;5.408;2023-07-13T10:15:55;101732.31;;;19.58;82.39
71764;BME280;59602;52.142;5.408;2023-07-13T10:18:24;101726.69;;;19.65;80.40
71764;BME280;59602;52.142;5.408;2023-07-13T10:21:10;101741.75;;;19.61;80.91
71764;BME280;59602;52.142;5.408;2023-07-13T10:24:04;101734.66;;;19.60;82.96
71764;BME280;59602;52.142;5.408;2023-07-13T10:26:34;101736.16;;;19.64;83.44
71764;BME280;59602;52.142;5.408;2023-07-13T10:29:08;101740.59;;;19.82;82.07
71764;BME280;59602;52.142;5.408;2023-07-13T10:31:38;101738.59;;;20.06;82.56
71764;BME280;59602;52.142;5.408;2023-07-13T10:34:10;101738.75;;;20.39;83.43
71764;BME280;59602;52.142;5.408;2023-07-13T10:36:42;101733.34;;;20.51;84.26
71764;BME280;59602;52.142;5.408;2023-07-13T10:39:16;101742.09;;;20.50;82.37
71764;BME280;59602;52.142;5.408;2023-07-13T10:41:48;101741.09;;;20.40;78.11
71764;BME280;59602;52.142;5.408;2023-07-13T10:44:23;101744.13;;;20.26;79.55
71764;BME280;59602;52.142;5.408;2023-07-13T10:46:57;101748.22;;;20.18;81.68
71764;BME280;59602;52.142;5.408;2023-07-13T10:49:36;101744.63;;;20.21;81.54
71764;BME280;59602;52.142;5.408;2023-07-13T10:52:03;101746.81;;;20.49;78.93
71764;BME280;59602;52.142;5.408;2023-07-13T10:54:33;101739.53;;;20.79;78.51
71764;BME280;59602;52.142;5.408;2023-07-13T10:57:16;101754.50;;;20.98;78.24
71764;BME280;59602;52.142;5.408;2023-07-13T10:59:49;101764.22;;;21.23;78.20
71764;BME280;59602;52.142;5.408;2023-07-13T11:02:39;101749.97;;;21.41;74.71
71764;BME280;59602;52.142;5.408;2023-07-13T11:07:56;101771.69;;;21.75;72.58
71764;BME280;59602;52.142;5.408;2023-07-13T11:10:52;101767.84;;;22.02;67.90
71764;BME280;59602;52.142;5.408;2023-07-13T11:13:55;101767.34;;;22.20;67.33
71764;BME280;59602;52.142;5.408;2023-07-13T11:18:52;101766.13;;;22.21;65.62
71764;BME280;59602;52.142;5.408;2023-07-13T11:21:26;101781.63;;;22.18;67.38
71764;BME280;59602;52.142;5.408;2023-07-13T11:24:15;101770.97;;;22.33;67.06
71764;BME280;59602;52.142;5.408;2023-07-13T11:27:14;101752.91;;;22.41;66.10
71764;BME280;59602;52.142;5.408;2023-07-13T11:29:43;101758.94;;;22.23;67.45
71764;BME280;59602;52.142;5.408;2023-07-13T11:32:23;101755.63;;;21.99;67.58
71764;BME280;59602;52.142;5.408;2023-07-13T11:34:53;101753.91;;;21.89;65.47
71764;BME280;59602;52.142;5.408;2023-07-13T11:37:22;101755.41;;;21.77;67.47
71764;BME280;59602;52.142;5.408;2023-07-13T11:39:51;101764.50;;;21.61;70.52
71764;BME280;59602;52.142;5.408;2023-07-13T11:42:20;101767.94;;;21.32;71.44
71764;BME280;59602;52.142;5.408;2023-07-13T11:44:52;101784.66;;;21.45;73.55
71764;BME280;59602;52.142;5.408;2023-07-13T11:47:33;101793.44;;;21.40;74.84
71764;BME280;59602;52.142;5.408;2023-07-13T11:50:00;101787.47;;;21.25;72.79
71764;BME280;59602;52.142;5.408;2023-07-13T11:52:35;101783.81;;;21.12;71.87
71764;BME280;59602;52.142;5.408;2023-07-13T11:55:13;101786.84;;;21.01;74.42
71764;BME280;59602;52.142;5.408;2023-07-13T11:57:49;101786.56;;;20.96;73.81
71764;BME280;59602;52.142;5.408;2023-07-13T12:00:20;101788.25;;;20.89;74.18
71764;BME280;59602;52.142;5.408;2023-07-13T12:02:51;101790.06;;;20.80;72.82
71764;BME280;59602;52.142;5.408;2023-07-13T12:05:20;101789.75;;;20.74;75.71
71764;BME280;59602;52.142;5.408;2023-07-13T12:07:48;101782.75;;;20.69;77.57
71764;BME280;59602;52.142;5.408;2023-07-13T12:10:24;101783.78;;;20.59;77.98
71764;BME280;59602;52.142;5.408;2023-07-13T12:13:14;101787.34;;;20.56;79.59
71764;BME280;59602;52.142;5.408;2023-07-13T12:15:43;101780.69;;;20.53;77.20
71764;BME280;59602;52.142;5.408;2023-07-13T12:18:22;101790.63;;;20.71;79.66
71764;BME280;59602;52.142;5.408;2023-07-13T12:20:57;101793.22;;;20.78;78.95
71764;BME280;59602;52.142;5.408;2023-07-13T12:23:33;101786.66;;;20.72;80.42
71764;BME280;59602;52.142;5.408;2023-07-13T12:26:03;101787.88;;;20.71;81.07
71764;BME280;59602;52.142;5.408;2023-07-13T12:28:31;101785.38;;;20.77;79.24
71764;BME280;59602;52.142;5.408;2023-07-13T12:40:14;101783.47;;;21.46;76.44
71764;BME280;59602;52.142;5.408;2023-07-13T12:42:41;101790.19;;;21.78;72.38
71764;BME280;59602;52.142;5.408;2023-07-13T12:47:41;101784.38;;;21.89;72.24
71764;BME280;59602;52.142;5.408;2023-07-13T12:50:15;101781.56;;;21.60;68.07
71764;BME280;59602;52.142;5.408;2023-07-13T12:52:52;101777.78;;;21.33;70.03
71764;BME280;59602;52.142;5.408;2023-07-13T12:55:21;101784.03;;;21.38;67.17
71764;BME280;59602;52.142;5.408;2023-07-13T12:57:53;101786.47;;;21.52;70.34
71764;BME280;59602;52.142;5.408;2023-07-13T13:02:54;101783.72;;;21.68;67.14
71764;BME280;59602;52.142;5.408;2023-07-13T13:05:41;101778.97;;;21.52;67.89
71764;BME280;59602;52.142;5.408;2023-07-13T13:08:11;101781.13;;;21.45;69.54
71764;BME280;59602;52.142;5.408;2023-07-13T13:10:38;101789.41;;;21.45;70.86
71764;BME280;59602;52.142;5.408;2023-07-13T13:13:05;101789.00;;;21.79;70.81
71764;BME280;59602;52.142;5.408;2023-07-13T13:15:32;101783.25;;;21.86;70.49
71764;BME280;59602;52.142;5.408;2023-07-13T13:17:59;101782.50;;;21.69;67.43
71764;BME280;59602;52.142;5.408;2023-07-13T13:20:26;101785.56;;;21.88;66.27
71764;BME280;59602;52.142;5.408;2023-07-13T13:22:56;101785.88;;;22.23;63.56
71764;BME280;59602;52.142;5.408;2023-07-13T13:25:23;101787.78;;;22.26;63.04
71764;BME280;59602;52.142;5.408;2023-07-13T13:27:51;101790.75;;;22.02;61.49
71764;BME280;59602;52.142;5.408;2023-07-13T13:30:17;101791.72;;;21.95;61.43
71764;BME280;59602;52.142;5.408;2023-07-13T13:32:46;101796.72;;;22.01;61.63
71764;BME280;59602;52.142;5.408;2023-07-13T13:35:15;101791.97;;;22.01;63.62
71764;BME280;59602;52.142;5.408;2023-07-13T13:37:43;101792.41;;;22.00;63.17
71764;BME280;59602;52.142;5.408;2023-07-13T13:40:15;101796.72;;;22.01;62.84
71764;BME280;59602;52.142;5.408;2023-07-13T13:42:43;101791.09;;;22.04;62.96
71764;BME280;59602;52.142;5.408;2023-07-13T13:45:10;101796.53;;;22.08;60.94
71764;BME280;59602;52.142;5.408;2023-07-13T13:47:39;101798.66;;;22.04;62.32
71764;BME280;59602;52.142;5.408;2023-07-13T13:50:19;101799.41;;;22.04;62.87
71764;BME280;59602;52.142;5.408;2023-07-13T13:52:50;101798.66;;;22.04;61.98